createdAt,value
2018-09-14T00:01:22.492Z,14.40
2018-09-14T00:03:50.276Z,14.40
2018-09-14T00:06:18.094Z,14.40
2018-09-14T00:08:45.965Z,14.40
2018-09-14T00:11:13.803Z,14.50
2018-09-14T00:13:41.611Z,14.40
2018-09-14T00:16:09.399Z,14.40
2018-09-14T00:18:37.280Z,14.40
2018-09-14T00:21:05.363Z,14.40
2018-09-14T00:23:33.153Z,14.40
2018-09-14T00:26:00.979Z,14.40
2018-09-14T00:28:28.853Z,14.40
2018-09-14T00:30:56.840Z,14.40
2018-09-14T00:33:24.698Z,14.40
2018-09-14T00:35:52.511Z,14.40
2018-09-14T00:38:20.329Z,14.40
2018-09-14T00:40:48.167Z,14.40
2018-09-14T00:43:16.018Z,14.40
2018-09-14T00:45:43.848Z,14.40
2018-09-14T00:48:11.943Z,14.40
2018-09-14T00:50:39.815Z,14.40
2018-09-14T00:53:07.599Z,14.40
2018-09-14T00:55:35.487Z,14.40
2018-09-14T00:58:03.420Z,14.40
2018-09-14T01:00:31.207Z,14.40
2018-09-14T01:02:58.988Z,14.40
2018-09-14T01:05:26.771Z,14.40
2018-09-14T01:07:54.627Z,14.40
2018-09-14T01:10:22.448Z,14.40
2018-09-14T01:12:50.251Z,14.40
2018-09-14T01:15:18.076Z,14.40
2018-09-14T01:17:45.871Z,14.40
2018-09-14T01:20:13.726Z,14.40
2018-09-14T01:22:41.776Z,14.30
2018-09-14T01:25:09.687Z,14.30
2018-09-14T01:27:37.484Z,14.30
2018-09-14T01:30:05.953Z,14.30
2018-09-14T01:32:37.193Z,14.30
2018-09-14T01:35:09.675Z,14.30
2018-09-14T01:37:37.547Z,14.30
2018-09-14T01:40:05.464Z,14.30
2018-09-14T01:42:33.295Z,14.20
2018-09-14T01:45:01.115Z,14.20
2018-09-14T01:47:28.939Z,14.20
2018-09-14T01:49:56.809Z,14.20
2018-09-14T01:52:24.588Z,14.20
2018-09-14T01:54:52.436Z,14.20
2018-09-14T01:57:20.225Z,14.20
2018-09-14T01:59:48.061Z,14.20
2018-09-14T02:02:15.902Z,14.20
2018-09-14T02:04:43.705Z,14.20
2018-09-14T02:07:11.671Z,14.20
2018-09-14T02:09:39.483Z,14.20
2018-09-14T02:12:07.284Z,14.20
2018-09-14T02:14:35.138Z,14.20
2018-09-14T02:17:02.918Z,14.10
2018-09-14T02:19:34.508Z,14.20
2018-09-14T02:22:02.380Z,14.10
2018-09-14T02:24:30.164Z,14.10
2018-09-14T02:26:57.944Z,14.10
2018-09-14T02:29:25.763Z,14.10
2018-09-14T02:31:53.539Z,14.20
2018-09-14T02:34:21.344Z,14.20
2018-09-14T02:36:50.140Z,14.10
2018-09-14T02:39:17.945Z,14.10
2018-09-14T02:41:45.769Z,14.10
2018-09-14T02:44:13.643Z,14.10
2018-09-14T02:46:41.501Z,14.20
2018-09-14T02:49:09.329Z,14.10
2018-09-14T02:51:37.104Z,14.10
2018-09-14T02:54:05.005Z,14.10
2018-09-14T02:56:32.763Z,14.10
2018-09-14T02:59:00.521Z,14.20
2018-09-14T03:01:28.322Z,14.10
2018-09-14T03:03:56.183Z,14.10
2018-09-14T03:06:24.046Z,14.10
2018-09-14T03:08:51.883Z,14.10
2018-09-14T03:11:19.788Z,14.10
2018-09-14T03:13:47.620Z,14.20
2018-09-14T03:16:15.374Z,14.20
2018-09-14T03:18:43.382Z,14.20
2018-09-14T03:21:11.135Z,14.10
2018-09-14T03:23:38.980Z,14.20
2018-09-14T03:26:06.779Z,14.20
2018-09-14T03:28:34.644Z,14.10
2018-09-14T03:31:02.475Z,14.20
2018-09-14T03:33:30.249Z,14.20
2018-09-14T03:35:58.623Z,14.10
2018-09-14T03:38:26.671Z,14.10
2018-09-14T03:40:54.528Z,14.10
2018-09-14T03:43:22.393Z,14.10
2018-09-14T03:45:54.372Z,14.10
2018-09-14T03:48:22.206Z,14.00
2018-09-14T03:50:50.044Z,14.10
2018-09-14T03:53:18.342Z,14.10
2018-09-14T03:55:46.112Z,14.10
2018-09-14T03:58:13.911Z,14.10
2018-09-14T04:00:42.432Z,14.10
2018-09-14T04:03:10.359Z,14.10
2018-09-14T04:05:38.421Z,14.10
2018-09-14T04:08:06.408Z,14.10
2018-09-14T04:10:34.255Z,14.10
2018-09-14T04:13:02.028Z,14.00
2018-09-14T04:15:30.108Z,14.10
2018-09-14T04:17:58.278Z,14.00
2018-09-14T04:20:26.171Z,14.00
2018-09-14T04:22:54.075Z,14.00
2018-09-14T04:25:21.931Z,14.00
2018-09-14T04:27:49.889Z,14.00
2018-09-14T04:30:17.745Z,14.00
2018-09-14T04:32:45.620Z,13.90
2018-09-14T04:35:13.450Z,14.00
2018-09-14T04:37:41.295Z,13.90
2018-09-14T04:40:09.111Z,13.90
2018-09-14T04:42:36.929Z,13.90
2018-09-14T04:45:05.016Z,13.90
2018-09-14T04:47:33.223Z,13.90
2018-09-14T04:50:01.072Z,13.90
2018-09-14T04:52:28.895Z,13.90
2018-09-14T04:54:56.891Z,13.90
2018-09-14T04:57:24.924Z,13.80
2018-09-14T04:59:52.798Z,13.80
2018-09-14T05:02:20.789Z,13.80
2018-09-14T05:04:48.822Z,13.80
2018-09-14T05:07:16.835Z,13.80
2018-09-14T05:09:44.863Z,13.80
2018-09-14T05:12:12.894Z,13.70
2018-09-14T05:14:40.632Z,13.80
2018-09-14T05:17:08.699Z,13.70
2018-09-14T05:19:36.555Z,13.70
2018-09-14T05:22:04.498Z,13.70
2018-09-14T05:24:32.282Z,13.70
2018-09-14T05:27:00.041Z,13.70
2018-09-14T05:29:27.891Z,13.70
2018-09-14T05:31:55.707Z,13.80
2018-09-14T05:34:23.600Z,13.80
2018-09-14T05:36:51.452Z,13.80
2018-09-14T05:39:19.263Z,13.80
2018-09-14T05:41:47.035Z,13.80
2018-09-14T05:44:14.827Z,13.90
2018-09-14T05:46:42.606Z,13.90
2018-09-14T05:49:10.407Z,13.80
2018-09-14T05:51:38.181Z,13.80
2018-09-14T05:54:06.071Z,13.90
2018-09-14T05:56:38.678Z,14.00
2018-09-14T05:59:06.563Z,14.00
2018-09-14T06:01:34.371Z,13.90
2018-09-14T06:04:02.204Z,14.00
2018-09-14T06:06:30.200Z,14.10
2018-09-14T06:08:57.908Z,14.00
2018-09-14T06:11:25.748Z,14.20
2018-09-14T06:13:53.922Z,14.20
2018-09-14T06:16:21.744Z,14.20
2018-09-14T06:18:49.534Z,14.30
2018-09-14T06:21:17.361Z,14.40
2018-09-14T06:23:45.194Z,14.50
2018-09-14T06:26:13.021Z,14.60
2018-09-14T06:28:40.825Z,14.50
2018-09-14T06:31:08.903Z,14.50
2018-09-14T06:33:36.703Z,14.60
2018-09-14T06:36:04.499Z,14.70
2018-09-14T06:38:32.395Z,14.80
2018-09-14T06:41:00.232Z,14.80
2018-09-14T06:43:32.475Z,14.80
2018-09-14T06:46:00.383Z,14.90
2018-09-14T06:48:28.188Z,14.90
2018-09-14T06:50:55.982Z,15.00
2018-09-14T06:53:23.870Z,15.00
2018-09-14T06:55:51.643Z,14.90
2018-09-14T06:58:19.467Z,14.80
2018-09-14T07:00:47.344Z,14.90
2018-09-14T07:03:15.176Z,14.70
2018-09-14T07:05:42.988Z,14.70
2018-09-14T07:08:10.808Z,14.70
2018-09-14T07:10:38.938Z,14.70
2018-09-14T07:13:06.898Z,14.90
2018-09-14T07:15:36.275Z,15.00
2018-09-14T07:18:04.116Z,15.10
2018-09-14T07:20:31.899Z,15.40
2018-09-14T07:22:59.744Z,15.60
2018-09-14T07:25:27.541Z,15.60
2018-09-14T07:27:55.290Z,15.70
2018-09-14T07:30:23.112Z,15.90
2018-09-14T07:32:50.987Z,16.00
2018-09-14T07:35:18.755Z,15.70
2018-09-14T07:37:46.623Z,16.00
2018-09-14T07:40:14.429Z,16.20
2018-09-14T07:42:42.252Z,15.90
2018-09-14T07:45:10.020Z,15.90
2018-09-14T07:47:37.907Z,16.20
2018-09-14T07:50:05.884Z,16.40
2018-09-14T07:52:33.714Z,16.30
2018-09-14T07:55:01.554Z,16.40
2018-09-14T07:57:29.360Z,16.30
2018-09-14T07:59:57.239Z,16.50
2018-09-14T08:02:25.111Z,16.70
2018-09-14T08:04:52.932Z,16.70
2018-09-14T08:07:20.740Z,16.90
2018-09-14T08:09:48.652Z,17.10
2018-09-14T08:12:16.484Z,16.60
2018-09-14T08:14:44.307Z,16.60
2018-09-14T08:17:12.129Z,16.90
2018-09-14T08:19:39.999Z,17.20
2018-09-14T08:22:07.844Z,17.30
2018-09-14T08:24:35.678Z,17.60
2018-09-14T08:27:03.501Z,17.70
2018-09-14T08:29:31.228Z,18.10
2018-09-14T08:31:59.036Z,18.10
2018-09-14T08:34:30.609Z,18.30
2018-09-14T08:36:58.507Z,18.20
2018-09-14T08:39:26.259Z,18.50
2018-09-14T08:41:54.187Z,18.00
2018-09-14T08:44:21.995Z,18.30
2018-09-14T08:46:49.869Z,18.60
2018-09-14T08:49:17.675Z,18.80
2018-09-14T08:51:45.500Z,18.50
2018-09-14T08:54:13.264Z,18.40
2018-09-14T08:56:41.104Z,18.40
2018-09-14T08:59:08.982Z,18.60
2018-09-14T09:01:36.839Z,19.20
2018-09-14T09:04:04.719Z,18.70
2018-09-14T09:06:32.532Z,18.90
2018-09-14T09:09:00.411Z,19.30
2018-09-14T09:11:28.227Z,19.30
2018-09-14T09:13:56.039Z,19.30
2018-09-14T09:16:27.056Z,19.40
2018-09-14T09:18:54.860Z,19.70
2018-09-14T09:21:22.663Z,20.10
2018-09-14T09:23:50.584Z,20.40
2018-09-14T09:26:18.381Z,20.70
2018-09-14T09:28:46.179Z,20.50
2018-09-14T09:31:14.063Z,20.70
2018-09-14T09:33:41.829Z,20.80
2018-09-14T09:36:09.681Z,20.80
2018-09-14T09:38:37.575Z,20.70
2018-09-14T09:41:05.884Z,21.00
2018-09-14T09:43:33.964Z,21.40
2018-09-14T09:46:01.663Z,20.70
2018-09-14T09:48:29.520Z,20.50
2018-09-14T09:50:57.355Z,20.60
2018-09-14T09:53:25.172Z,20.70
2018-09-14T09:55:52.967Z,20.50
2018-09-14T09:58:24.310Z,21.00
2018-09-14T10:00:57.880Z,20.50
2018-09-14T10:03:31.568Z,20.50
2018-09-14T10:06:05.098Z,20.40
2018-09-14T10:08:32.944Z,20.10
2018-09-14T10:11:00.760Z,20.40
2018-09-14T10:13:28.614Z,20.30
2018-09-14T10:15:56.492Z,20.20
2018-09-14T10:18:24.307Z,20.00
2018-09-14T10:20:52.267Z,20.20
2018-09-14T10:23:20.084Z,20.00
2018-09-14T10:25:48.084Z,19.90
2018-09-14T10:28:15.913Z,20.00
2018-09-14T10:30:43.920Z,20.20
2018-09-14T10:33:11.967Z,20.20
2018-09-14T10:35:39.800Z,20.30
2018-09-14T10:38:07.626Z,20.50
2018-09-14T10:40:35.529Z,20.60
2018-09-14T10:43:03.420Z,21.00
2018-09-14T10:45:31.216Z,21.40
2018-09-14T10:50:44.984Z,21.50
2018-09-14T10:53:12.826Z,21.50
2018-09-14T10:55:40.716Z,22.20
2018-09-14T10:58:08.628Z,22.70
2018-09-14T11:00:36.482Z,23.20
2018-09-14T11:03:06.635Z,24.10
2018-09-14T11:05:34.464Z,24.00
2018-09-14T11:08:02.342Z,24.00
2018-09-14T11:10:30.147Z,23.90
2018-09-14T11:12:58.014Z,24.40
2018-09-14T11:15:25.939Z,25.30
2018-09-14T11:17:53.765Z,25.30
2018-09-14T11:20:21.492Z,25.50
2018-09-14T11:22:49.378Z,25.80
2018-09-14T11:25:17.198Z,25.90
2018-09-14T11:27:45.644Z,26.40
2018-09-14T11:30:13.422Z,26.90
2018-09-14T11:32:41.213Z,27.50
2018-09-14T11:35:08.967Z,27.60
2018-09-14T11:37:36.794Z,27.30
2018-09-14T11:40:04.735Z,27.50
2018-09-14T11:42:32.588Z,28.40
2018-09-14T11:45:00.360Z,28.60
2018-09-14T11:47:28.149Z,28.80
2018-09-14T11:49:55.968Z,28.20
2018-09-14T11:52:24.359Z,27.30
2018-09-14T11:54:52.260Z,27.60
2018-09-14T11:57:19.991Z,26.40
2018-09-14T11:59:47.754Z,26.70
2018-09-14T12:02:15.560Z,26.40
2018-09-14T12:04:43.484Z,25.50
2018-09-14T12:07:11.331Z,25.20
2018-09-14T12:09:39.714Z,25.30
2018-09-14T12:12:07.624Z,24.80
2018-09-14T12:14:35.424Z,24.60
2018-09-14T12:17:03.171Z,24.80
2018-09-14T12:19:31.156Z,24.70
2018-09-14T12:22:00.074Z,25.00
2018-09-14T12:24:28.396Z,24.90
2018-09-14T12:26:57.621Z,25.30
2018-09-14T12:29:25.572Z,25.70
2018-09-14T12:31:57.089Z,26.40
2018-09-14T12:34:24.968Z,27.60
2018-09-14T12:36:53.349Z,28.30
2018-09-14T12:39:21.683Z,28.50
2018-09-14T12:41:49.550Z,27.70
2018-09-14T12:44:17.851Z,26.70
2018-09-14T12:46:50.013Z,26.30
2018-09-14T12:49:18.019Z,26.40
2018-09-14T12:51:45.820Z,26.10
2018-09-14T12:54:13.571Z,26.00
2018-09-14T12:56:41.618Z,25.60
2018-09-14T12:59:09.487Z,25.00
2018-09-14T13:01:40.768Z,25.00
2018-09-14T13:04:08.940Z,24.40
2018-09-14T13:06:36.691Z,25.40
2018-09-14T13:09:10.629Z,25.50
2018-09-14T13:11:38.953Z,24.60
2018-09-14T13:14:07.061Z,25.10
2018-09-14T13:16:35.137Z,25.10
2018-09-14T13:19:03.023Z,25.20
2018-09-14T13:21:31.259Z,25.20
2018-09-14T13:23:59.047Z,24.70
2018-09-14T13:26:33.737Z,24.70
2018-09-14T13:29:01.899Z,24.40
2018-09-14T13:31:29.655Z,24.00
2018-09-14T13:33:57.589Z,24.00
2018-09-14T13:36:25.351Z,24.10
2018-09-14T13:38:53.164Z,24.60
2018-09-14T13:41:20.977Z,24.40
2018-09-14T13:43:48.808Z,24.70
2018-09-14T13:46:18.785Z,24.40
2018-09-14T13:48:46.678Z,24.50
2018-09-14T13:51:14.598Z,24.60
2018-09-14T13:53:42.503Z,24.30
2018-09-14T13:56:10.332Z,23.70
2018-09-14T13:58:38.095Z,24.00
2018-09-14T14:01:06.288Z,23.70
2018-09-14T14:03:34.003Z,23.70
2018-09-14T14:06:01.790Z,23.60
2018-09-14T14:08:29.557Z,24.00
2018-09-14T14:10:57.356Z,24.00
2018-09-14T14:13:25.130Z,24.10
2018-09-14T14:15:52.945Z,23.80
2018-09-14T14:18:20.752Z,23.50
2018-09-14T14:20:48.581Z,23.00
2018-09-14T14:23:16.438Z,22.90
2018-09-14T14:25:44.275Z,22.80
2018-09-14T14:28:12.056Z,22.80
2018-09-14T14:30:39.916Z,23.00
2018-09-14T14:33:08.127Z,23.00
2018-09-14T14:35:40.657Z,23.20
2018-09-14T14:38:08.467Z,23.00
2018-09-14T14:40:36.336Z,23.20
2018-09-14T14:43:04.172Z,23.20
2018-09-14T14:45:32.055Z,23.10
2018-09-14T14:47:59.919Z,23.00
2018-09-14T14:50:27.779Z,23.00
2018-09-14T14:52:55.700Z,23.30
2018-09-14T14:55:23.549Z,23.10
2018-09-14T14:57:51.356Z,22.90
2018-09-14T15:00:19.196Z,23.20
2018-09-14T15:02:47.060Z,23.40
2018-09-14T15:05:14.916Z,23.20
2018-09-14T15:07:42.775Z,22.90
2018-09-14T15:10:10.673Z,22.70
2018-09-14T15:12:38.456Z,22.20
2018-09-14T15:15:06.356Z,22.60
2018-09-14T15:17:34.119Z,22.40
2018-09-14T15:20:01.976Z,22.70
2018-09-14T15:22:29.783Z,22.80
2018-09-14T15:24:57.580Z,22.80
2018-09-14T15:27:25.394Z,22.80
2018-09-14T15:29:53.245Z,22.80
2018-09-14T15:32:21.036Z,22.70
2018-09-14T15:34:48.943Z,22.60
2018-09-14T15:37:16.793Z,22.60
2018-09-14T15:39:44.676Z,22.40
2018-09-14T15:42:12.678Z,22.30
2018-09-14T15:44:40.460Z,22.20
2018-09-14T15:47:11.635Z,22.50
2018-09-14T15:49:39.514Z,22.60
2018-09-14T15:52:07.432Z,22.70
2018-09-14T15:54:35.356Z,22.80
2018-09-14T15:57:03.188Z,22.90
2018-09-14T15:59:30.954Z,22.90
2018-09-14T16:01:58.706Z,22.60
2018-09-14T16:04:27.174Z,22.10
2018-09-14T16:06:54.998Z,21.70
2018-09-14T16:09:22.901Z,21.60
2018-09-14T16:11:50.683Z,21.90
2018-09-14T16:14:18.467Z,21.90
2018-09-14T16:16:46.247Z,21.80
2018-09-14T16:19:14.025Z,21.80
2018-09-14T16:21:41.753Z,21.80
2018-09-14T16:24:09.591Z,21.80
2018-09-14T16:26:37.480Z,21.70
2018-09-14T16:29:05.387Z,21.60
2018-09-14T16:31:33.299Z,21.60
2018-09-14T16:34:01.139Z,21.50
2018-09-14T16:36:28.947Z,21.60
2018-09-14T16:38:56.780Z,21.60
2018-09-14T16:41:24.528Z,21.50
2018-09-14T16:43:52.419Z,21.30
2018-09-14T16:46:20.164Z,21.30
2018-09-14T16:48:48.032Z,21.20
2018-09-14T16:51:20.250Z,21.10
2018-09-14T16:53:48.228Z,21.10
2018-09-14T16:56:15.983Z,21.10
2018-09-14T16:58:43.866Z,21.10
2018-09-14T17:01:11.694Z,21.10
2018-09-14T17:03:39.551Z,21.00
2018-09-14T17:06:07.392Z,21.00
2018-09-14T17:08:35.167Z,20.90
2018-09-14T17:11:03.006Z,21.00
2018-09-14T17:13:30.801Z,20.80
2018-09-14T17:15:58.905Z,20.80
2018-09-14T17:18:28.463Z,20.80
2018-09-14T17:20:58.836Z,20.70
2018-09-14T17:23:26.588Z,20.70
2018-09-14T17:25:54.516Z,20.70
2018-09-14T17:28:22.343Z,20.60
2018-09-14T17:30:50.490Z,20.60
2018-09-14T17:33:18.190Z,20.60
2018-09-14T17:35:51.421Z,20.50
2018-09-14T17:38:19.458Z,20.50
2018-09-14T17:40:47.142Z,20.50
2018-09-14T17:43:15.028Z,20.50
2018-09-14T17:45:42.920Z,20.40
2018-09-14T17:48:10.723Z,20.50
2018-09-14T17:50:38.500Z,20.40
2018-09-14T17:53:06.348Z,20.40
2018-09-14T17:55:34.164Z,20.20
2018-09-14T17:58:02.039Z,20.30
2018-09-14T18:00:29.892Z,20.20
2018-09-14T18:02:57.705Z,20.20
2018-09-14T18:05:25.540Z,20.10
2018-09-14T18:07:53.360Z,20.00
2018-09-14T18:10:23.126Z,19.90
2018-09-14T18:12:51.072Z,19.80
2018-09-14T18:15:18.874Z,19.80
2018-09-14T18:17:46.861Z,19.70
2018-09-14T18:20:14.691Z,19.60
2018-09-14T18:22:42.514Z,19.50
2018-09-14T18:25:10.564Z,19.40
2018-09-14T18:27:38.989Z,19.40
2018-09-14T18:30:07.868Z,19.40
2018-09-14T18:32:35.872Z,19.50
2018-09-14T18:35:03.998Z,19.50
2018-09-14T18:37:31.793Z,19.40
2018-09-14T18:39:59.763Z,19.40
2018-09-14T18:42:27.588Z,19.40
2018-09-14T18:44:55.403Z,19.40
2018-09-14T18:47:23.847Z,19.30
2018-09-14T18:49:51.687Z,19.40
2018-09-14T18:52:19.486Z,19.40
2018-09-14T18:54:47.387Z,19.30
2018-09-14T18:57:15.438Z,19.30
2018-09-14T18:59:43.557Z,19.20
2018-09-14T19:02:11.481Z,19.10
2018-09-14T19:04:39.380Z,19.20
2018-09-14T19:07:07.425Z,19.20
2018-09-14T19:09:35.377Z,19.10
2018-09-14T19:12:03.274Z,19.10
2018-09-14T19:14:31.183Z,19.10
2018-09-14T19:16:59.052Z,19.10
2018-09-14T19:19:26.925Z,19.00
2018-09-14T19:21:54.715Z,18.90
2018-09-14T19:24:22.586Z,18.90
2018-09-14T19:26:50.537Z,18.80
2018-09-14T19:29:18.468Z,18.70
2018-09-14T19:31:46.283Z,18.60
2018-09-14T19:34:16.010Z,18.60
2018-09-14T19:36:44.909Z,18.60
2018-09-14T19:39:13.445Z,18.50
2018-09-14T19:41:41.292Z,18.50
2018-09-14T19:44:09.327Z,18.50
2018-09-14T19:46:37.137Z,18.40
2018-09-14T19:49:05.137Z,18.30
2018-09-14T19:51:32.995Z,18.20
2018-09-14T19:54:00.915Z,18.20
2018-09-14T19:56:28.805Z,18.20
2018-09-14T19:58:57.393Z,18.20
2018-09-14T20:01:25.283Z,18.20
2018-09-14T20:03:53.329Z,18.20
2018-09-14T20:06:21.233Z,18.10
2018-09-14T20:08:49.034Z,18.10
2018-09-14T20:11:16.849Z,18.10
2018-09-14T20:13:44.626Z,18.10
2018-09-14T20:16:12.755Z,18.10
2018-09-14T20:18:40.615Z,18.10
2018-09-14T20:21:08.333Z,18.10
2018-09-14T20:23:36.143Z,18.10
2018-09-14T20:26:04.339Z,18.10
2018-09-14T20:28:32.179Z,18.10
2018-09-14T20:31:00.120Z,18.10
2018-09-14T20:33:27.988Z,18.00
2018-09-14T20:35:56.380Z,18.10
2018-09-14T20:38:24.360Z,18.10
2018-09-14T20:40:52.152Z,18.00
2018-09-14T20:43:20.054Z,18.00
2018-09-14T20:45:47.899Z,17.80
2018-09-14T20:48:15.690Z,17.70
2018-09-14T20:50:43.600Z,17.50
2018-09-14T20:53:11.419Z,17.40
2018-09-14T20:55:39.316Z,17.20
2018-09-14T20:58:07.147Z,17.10
2018-09-14T21:00:34.920Z,17.10
2018-09-14T21:03:03.560Z,16.90
2018-09-14T21:05:31.473Z,17.00
2018-09-14T21:07:59.455Z,16.90
2018-09-14T21:10:27.293Z,16.90
2018-09-14T21:12:58.920Z,16.90
2018-09-14T21:15:26.905Z,16.80
2018-09-14T21:17:54.912Z,16.80
2018-09-14T21:20:22.718Z,16.90
2018-09-14T21:22:50.583Z,17.00
2018-09-14T21:25:18.419Z,17.10
2018-09-14T21:27:46.324Z,17.10
2018-09-14T21:30:14.192Z,17.20
2018-09-14T21:32:41.986Z,17.10
2018-09-14T21:35:09.884Z,17.10
2018-09-14T21:37:37.992Z,17.00
2018-09-14T21:40:09.264Z,16.90
2018-09-14T21:42:37.073Z,16.90
2018-09-14T21:45:05.297Z,16.80
2018-09-14T21:47:33.128Z,16.80
2018-09-14T21:50:00.868Z,16.90
2018-09-14T21:52:28.779Z,16.90
2018-09-14T21:54:57.311Z,16.90
2018-09-14T21:57:25.144Z,16.80
2018-09-14T21:59:53.053Z,16.80
2018-09-14T22:02:20.902Z,16.70
2018-09-14T22:04:48.659Z,16.70
2018-09-14T22:07:16.454Z,16.70
2018-09-14T22:09:44.768Z,16.60
2018-09-14T22:12:12.581Z,16.50
2018-09-14T22:14:40.420Z,16.50
2018-09-14T22:17:08.303Z,16.50
2018-09-14T22:19:36.143Z,16.40
2018-09-14T22:22:03.986Z,16.40
2018-09-14T22:24:31.731Z,16.40
2018-09-14T22:26:59.535Z,16.40
2018-09-14T22:29:27.369Z,16.40
2018-09-14T22:31:55.254Z,16.40
2018-09-14T22:34:23.017Z,16.40
2018-09-14T22:36:50.842Z,16.40
2018-09-14T22:39:18.692Z,16.40
2018-09-14T22:41:46.519Z,16.40
2018-09-14T22:44:14.293Z,16.50
2018-09-14T22:46:42.143Z,16.50
2018-09-14T22:49:09.990Z,16.40
2018-09-14T22:51:37.871Z,16.40
2018-09-14T22:54:05.743Z,16.20
2018-09-14T22:56:33.588Z,16.10
2018-09-14T22:59:01.378Z,16.00
2018-09-14T23:01:30.621Z,15.90
2018-09-14T23:03:59.076Z,15.80
2018-09-14T23:06:26.872Z,15.80
2018-09-14T23:08:54.715Z,15.70
2018-09-14T23:11:22.470Z,15.80
2018-09-14T23:13:50.283Z,15.80
2018-09-14T23:16:18.106Z,15.80
2018-09-14T23:18:45.952Z,15.80
2018-09-14T23:21:13.786Z,15.70
2018-09-14T23:23:41.569Z,15.70
2018-09-14T23:26:12.801Z,15.70
2018-09-14T23:28:40.712Z,15.70
2018-09-14T23:31:08.483Z,15.70
2018-09-14T23:33:36.370Z,15.60
2018-09-14T23:36:04.246Z,15.60
2018-09-14T23:38:32.085Z,15.40
2018-09-14T23:40:59.911Z,15.30
2018-09-14T23:43:27.755Z,15.30
2018-09-14T23:45:55.523Z,15.10
2018-09-14T23:48:23.314Z,15.10
2018-09-14T23:50:51.148Z,14.90
2018-09-14T23:53:18.952Z,14.70
2018-09-14T23:55:46.731Z,14.60
2018-09-14T23:58:14.488Z,14.70
